Time;durP1;ratioP1;P1;durP2;ratioP2;P2;SDS_P1;SDS_P2;PMS_P1;PMS_P2;Temp;Humidity;BMP_temperature;BMP_pressure;BME280_temperature;BME280_humidity;BME280_pressure;Samples;Min_cycle;Max_cycle;Signal;HPM_P1;HPM_P2
2022/04/16 00:00:06;;;;;;;14.05;11.00;;;;;;;9.18;100.00;102942.59;5195365;28;20506;-68
2022/04/16 00:02:38;;;;;;;12.13;10.88;;;;;;;9.22;100.00;102940.69;5197273;28;20054;-69
2022/04/16 00:05:09;;;;;;;13.20;10.83;;;;;;;9.21;100.00;102944.25;5197941;28;20544;-69
2022/04/16 00:07:41;;;;;;;15.00;11.05;;;;;;;9.19;100.00;102940.84;5195373;28;20088;-69
2022/04/16 00:10:13;;;;;;;14.90;11.20;;;;;;;9.15;100.00;102939.28;5198652;28;20523;-69
2022/04/16 00:12:44;;;;;;;13.23;11.02;;;;;;;9.09;100.00;102942.16;5197020;28;20022;-69
2022/04/16 00:15:15;;;;;;;12.38;10.68;;;;;;;9.04;100.00;102939.75;5196868;28;20334;-69
2022/04/16 00:17:48;;;;;;;14.07;11.10;;;;;;;9.00;100.00;102944.28;5196585;28;20018;-69
2022/04/16 00:20:20;;;;;;;12.90;10.57;;;;;;;9.00;100.00;102936.44;5192651;28;20033;-69
2022/04/16 00:22:52;;;;;;;12.23;10.20;;;;;;;9.02;100.00;102939.00;5196496;28;20034;-69
2022/04/16 00:25:23;;;;;;;14.48;11.75;;;;;;;8.99;100.00;102937.34;5194672;28;20539;-69
2022/04/16 00:27:55;;;;;;;13.40;11.13;;;;;;;8.92;100.00;102941.16;5193856;28;20029;-69
2022/04/16 00:30:26;;;;;;;12.75;11.05;;;;;;;8.94;100.00;102946.31;5194943;28;20030;-69
2022/04/16 00:32:58;;;;;;;14.82;12.35;;;;;;;8.95;100.00;102946.25;5191881;28;20031;-69
2022/04/16 00:35:29;;;;;;;13.52;12.13;;;;;;;8.95;100.00;102942.78;5195160;28;20061;-69
2022/04/16 00:38:00;;;;;;;13.25;11.77;;;;;;;8.95;100.00;102937.56;5191323;28;20285;-68
2022/04/16 00:40:32;;;;;;;14.23;11.77;;;;;;;8.89;100.00;102941.28;5195164;28;20037;-69
2022/04/16 00:43:05;;;;;;;14.25;11.20;;;;;;;8.90;100.00;102945.63;5193969;28;20037;-68
2022/04/16 00:45:37;;;;;;;13.20;11.77;;;;;;;8.89;100.00;102943.06;5194735;28;20030;-68
2022/04/16 00:48:09;;;;;;;13.90;11.57;;;;;;;8.84;100.00;102955.50;5194684;28;20049;-68
2022/04/16 00:50:40;;;;;;;13.70;11.75;;;;;;;8.84;100.00;102947.66;5196016;28;20109;-69
2022/04/16 00:53:15;;;;;;;15.77;11.55;;;;;;;8.77;100.00;102953.13;5193473;28;20032;-68
2022/04/16 00:55:46;;;;;;;14.30;11.75;;;;;;;8.71;100.00;102952.53;5196644;28;20788;-66
2022/04/16 00:58:18;;;;;;;16.33;12.57;;;;;;;8.77;100.00;102944.44;5198408;28;20274;-69
2022/04/16 01:00:49;;;;;;;17.17;12.43;;;;;;;8.69;100.00;102947.38;5194660;28;20463;-68
2022/04/16 01:03:20;;;;;;;15.77;13.40;;;;;;;8.68;100.00;102939.63;5194132;28;20029;-68
2022/04/16 01:05:52;;;;;;;14.35;12.45;;;;;;;8.72;100.00;102938.59;5196307;28;20568;-67
2022/04/16 01:08:23;;;;;;;14.63;13.18;;;;;;;8.65;100.00;102955.44;5196601;28;20061;-69
2022/04/16 01:10:54;;;;;;;15.75;13.30;;;;;;;8.65;100.00;102945.81;5194909;28;20064;-67
2022/04/16 01:13:25;;;;;;;18.02;14.10;;;;;;;8.65;100.00;102952.81;5194459;28;20023;-69
2022/04/16 01:15:57;;;;;;;16.30;13.63;;;;;;;8.61;100.00;102941.66;5196756;28;20026;-69
2022/04/16 01:18:28;;;;;;;16.10;14.40;;;;;;;8.62;100.00;102942.50;5195209;28;20069;-69
2022/04/16 01:21:01;;;;;;;17.00;14.20;;;;;;;8.56;100.00;102948.84;5193204;28;20048;-69
2022/04/16 01:23:33;;;;;;;15.27;13.32;;;;;;;8.50;100.00;102949.09;5190002;28;20582;-69
2022/04/16 01:26:04;;;;;;;15.82;14.23;;;;;;;8.50;100.00;102949.94;5196085;28;20026;-69
2022/04/16 01:28:35;;;;;;;17.08;15.20;;;;;;;8.50;100.00;102956.94;5195156;28;20036;-68
2022/04/16 01:31:07;;;;;;;15.27;13.75;;;;;;;8.50;100.00;102957.78;5193602;28;20156;-71
2022/04/16 01:33:38;;;;;;;17.05;13.98;;;;;;;8.47;100.00;102955.28;5194831;28;20030;-67
2022/04/16 01:36:09;;;;;;;15.98;14.30;;;;;;;8.43;100.00;102960.72;5195519;28;20026;-68
2022/04/16 01:38:41;;;;;;;14.77;13.35;;;;;;;8.45;100.00;102966.72;5193701;28;20014;-69
2022/04/16 01:41:12;;;;;;;15.82;14.10;;;;;;;8.42;100.00;102962.47;5194986;28;20061;-68
2022/04/16 01:43:43;;;;;;;18.20;14.07;;;;;;;8.38;100.00;102966.13;5195618;28;20463;-69
2022/04/16 01:46:14;;;;;;;15.95;14.20;;;;;;;8.42;100.00;102972.09;5199388;28;20396;-68
2022/04/16 01:48:46;;;;;;;17.10;14.95;;;;;;;8.30;100.00;102962.97;5194339;28;20033;-69
2022/04/16 01:51:17;;;;;;;16.17;14.48;;;;;;;8.34;100.00;102974.97;5194469;28;20065;-69
2022/04/16 01:53:48;;;;;;;17.67;15.77;;;;;;;8.27;100.00;102973.53;5194810;28;20488;-68
2022/04/16 01:56:20;;;;;;;19.15;15.75;;;;;;;8.24;100.00;102968.44;5197071;28;20480;-69
2022/04/16 01:58:51;;;;;;;16.95;15.25;;;;;;;8.24;100.00;102976.25;5194781;28;20041;-68
2022/04/16 02:01:22;;;;;;;16.05;14.45;;;;;;;8.24;100.00;102974.50;5189152;28;20054;-67
2022/04/16 02:03:54;;;;;;;17.38;15.13;;;;;;;8.16;100.00;102962.66;5191778;28;20522;-69
2022/04/16 02:06:25;;;;;;;16.67;14.85;;;;;;;8.15;100.00;102971.44;5195633;28;20025;-67
2022/04/16 02:08:56;;;;;;;19.17;16.40;;;;;;;8.05;100.00;102966.56;5194169;28;20518;-69
2022/04/16 02:11:28;;;;;;;18.42;15.93;;;;;;;8.04;100.00;102967.47;5198070;28;20499;-69
2022/04/16 02:13:59;;;;;;;17.65;15.80;;;;;;;8.13;100.00;102968.00;5193733;28;20054;-68
2022/04/16 02:16:30;;;;;;;17.02;15.32;;;;;;;8.11;100.00;102969.84;5193881;28;20205;-69
2022/04/16 02:19:01;;;;;;;16.38;14.65;;;;;;;8.19;100.00;102971.22;5194264;28;20036;-68
2022/04/16 02:21:33;;;;;;;17.02;15.15;;;;;;;8.11;100.00;102978.53;5195847;28;20037;-69
2022/04/16 02:24:04;;;;;;;17.63;15.63;;;;;;;8.09;100.00;102971.66;5195633;28;20032;-69
2022/04/16 02:26:37;;;;;;;17.40;15.70;;;;;;;8.11;100.00;102969.84;5192746;28;20053;-68
2022/04/16 02:29:08;;;;;;;18.50;15.97;;;;;;;8.10;100.00;102973.34;5192667;28;20031;-67
2022/04/16 02:31:40;;;;;;;18.08;16.17;;;;;;;8.04;100.00;102977.06;5196960;28;20034;-66
2022/04/16 02:34:11;;;;;;;17.08;15.35;;;;;;;8.02;100.00;102977.13;5197612;28;20183;-69
2022/04/16 02:36:43;;;;;;;17.02;15.23;;;;;;;8.03;100.00;102977.97;5199349;28;20560;-68
2022/04/16 02:39:15;;;;;;;18.55;16.52;;;;;;;8.08;100.00;102977.81;5197607;28;20117;-66
2022/04/16 02:41:47;;;;;;;19.45;17.00;;;;;;;8.05;100.00;102978.75;5198238;28;20037;-68
2022/04/16 02:47:08;;;;;;;18.63;16.15;;;;;;;7.98;100.00;102983.38;5201221;28;20030;-69
2022/04/16 02:49:40;;;;;;;19.60;16.75;;;;;;;7.98;100.00;102980.75;5198875;28;20026;-68
2022/04/16 02:52:11;;;;;;;19.38;16.75;;;;;;;7.91;100.00;102986.28;5195520;28;20060;-66
2022/04/16 02:54:42;;;;;;;18.48;15.70;;;;;;;7.96;100.00;102980.00;5198721;28;20029;-68
2022/04/16 02:57:14;;;;;;;21.95;16.48;;;;;;;7.88;100.00;102981.19;5199058;28;20026;-68
2022/04/16 02:59:47;;;;;;;17.27;15.45;;;;;;;7.88;100.00;102984.66;5197931;28;20081;-69
2022/04/16 03:02:18;;;;;;;22.40;16.55;;;;;;;7.85;100.00;102987.38;5198188;28;20587;-69
2022/04/16 03:04:50;;;;;;;21.48;16.60;;;;;;;7.80;100.00;102994.53;5196039;28;20022;-67
2022/04/16 03:07:21;;;;;;;18.38;16.38;;;;;;;7.79;100.00;102992.84;5195955;28;20034;-67
2022/04/16 03:09:52;;;;;;;19.35;17.08;;;;;;;7.75;100.00;102997.31;5198217;28;20092;-68
2022/04/16 03:12:24;;;;;;;19.33;17.33;;;;;;;7.73;100.00;103003.53;5197929;28;20057;-69
2022/04/16 03:17:44;;;;;;;19.25;16.83;;;;;;;7.71;100.00;102990.53;5199300;28;20073;-68
2022/04/16 03:20:16;;;;;;;20.08;17.15;;;;;;;7.66;100.00;102999.44;5191372;28;20121;-68
2022/04/16 03:22:47;;;;;;;20.55;16.27;;;;;;;7.65;100.00;103000.34;5198841;28;20022;-69
2022/04/16 03:25:18;;;;;;;20.55;16.38;;;;;;;7.60;100.00;102999.66;5196671;28;20056;-68
2022/04/16 03:27:50;;;;;;;20.85;17.20;;;;;;;7.65;100.00;103005.56;5196279;28;20029;-67
2022/04/16 03:30:23;;;;;;;19.73;17.13;;;;;;;7.56;100.00;102998.94;5198945;28;20538;-67
2022/04/16 03:32:54;;;;;;;18.85;16.85;;;;;;;7.59;100.00;103003.19;5198706;28;20018;-68
2022/04/16 03:35:26;;;;;;;20.75;18.55;;;;;;;7.52;100.00;103002.56;5195122;28;20034;-70
2022/04/16 03:37:57;;;;;;;20.92;16.63;;;;;;;7.54;100.00;103004.22;5199286;28;20057;-69
2022/04/16 03:40:28;;;;;;;21.67;19.10;;;;;;;7.49;100.00;103000.91;5197756;28;20033;-69
2022/04/16 03:43:01;;;;;;;20.30;17.73;;;;;;;7.44;100.00;103002.84;5197777;28;20248;-69
2022/04/16 03:45:34;;;;;;;21.33;17.90;;;;;;;7.42;100.00;102996.81;5193481;28;20037;-69
2022/04/16 03:48:07;;;;;;;23.05;18.63;;;;;;;7.44;100.00;102999.41;5196232;28;20114;-69
2022/04/16 03:50:40;;;;;;;18.98;17.00;;;;;;;7.39;100.00;102994.34;5198117;28;20148;-69
2022/04/16 03:53:11;;;;;;;21.70;18.27;;;;;;;7.33;100.00;102997.19;5194178;28;20026;-69
2022/04/16 04:01:23;;;;;;;21.00;18.65;;;;;;;7.26;100.00;103000.91;5194307;28;20057;-69
2022/04/16 04:03:54;;;;;;;20.98;18.58;;;;;;;7.30;100.00;103007.72;5197439;28;20069;-69
2022/04/16 04:06:26;;;;;;;20.80;18.52;;;;;;;7.25;100.00;103012.25;5194367;28;20033;-69
2022/04/16 04:08:57;;;;;;;20.75;18.55;;;;;;;7.23;100.00;103008.84;5197713;28;20403;-69
2022/04/16 04:11:28;;;;;;;21.55;18.23;;;;;;;7.10;100.00;102998.00;5194024;28;20026;-69
2022/04/16 04:13:59;;;;;;;27.95;18.90;;;;;;;7.19;100.00;103017.69;5197798;28;20022;-69
2022/04/16 04:16:31;;;;;;;23.50;18.42;;;;;;;7.16;100.00;103018.66;5195360;28;20115;-69
2022/04/16 04:19:02;;;;;;;22.70;18.55;;;;;;;7.07;100.00;103009.38;5195656;28;20045;-69
2022/04/16 04:21:33;;;;;;;22.15;19.52;;;;;;;7.12;100.00;103017.03;5196268;28;20140;-69
2022/04/16 04:24:05;;;;;;;25.05;20.40;;;;;;;7.06;100.00;103018.13;5196338;28;20021;-69
2022/04/16 04:26:36;;;;;;;27.20;20.42;;;;;;;6.99;100.00;103021.84;5197169;28;20062;-69
2022/04/16 04:29:07;;;;;;;23.40;20.33;;;;;;;6.96;100.00;103021.09;5194429;28;20295;-69
2022/04/16 04:31:38;;;;;;;24.73;20.08;;;;;;;6.99;100.00;103031.41;5197619;28;20030;-69
2022/04/16 04:34:10;;;;;;;22.23;19.75;;;;;;;7.00;100.00;103028.75;5195171;28;21185;-69
2022/04/16 04:36:41;;;;;;;21.98;19.58;;;;;;;6.90;100.00;103032.59;5197797;28;20479;-69
2022/04/16 04:39:13;;;;;;;24.48;21.80;;;;;;;6.80;100.00;103024.22;5197983;28;20024;-69
2022/04/16 04:41:44;;;;;;;22.13;19.77;;;;;;;6.88;100.00;103036.16;5194748;28;20624;-69
2022/04/16 04:44:16;;;;;;;22.85;19.90;;;;;;;6.88;100.00;103038.75;5195110;28;20126;-69
2022/04/16 04:46:47;;;;;;;23.90;20.83;;;;;;;6.86;100.00;103040.53;5197281;28;20027;-69
2022/04/16 04:49:19;;;;;;;25.25;22.55;;;;;;;6.79;100.00;103047.75;5195630;28;20125;-69
2022/04/16 04:51:50;;;;;;;23.90;20.70;;;;;;;6.77;100.00;103041.72;5193831;28;20033;-69
2022/04/16 04:54:21;;;;;;;28.10;21.20;;;;;;;6.79;100.00;103052.94;5193899;28;20464;-69
2022/04/16 04:56:53;;;;;;;25.80;21.10;;;;;;;6.77;100.00;103045.16;5195318;28;20029;-69
2022/04/16 04:59:24;;;;;;;24.52;21.77;;;;;;;6.75;100.00;103044.38;5194839;28;20038;-69
2022/04/16 05:01:55;;;;;;;24.60;21.13;;;;;;;6.82;100.00;103050.25;5193767;28;20058;-69
2022/04/16 05:04:26;;;;;;;25.73;22.25;;;;;;;6.76;100.00;103034.81;5195839;28;20041;-70
2022/04/16 05:06:58;;;;;;;26.13;21.85;;;;;;;6.83;100.00;103050.19;5193099;28;20029;-69
2022/04/16 05:09:29;;;;;;;28.02;22.88;;;;;;;6.80;100.00;103063.31;5196817;28;20521;-69
2022/04/16 05:12:01;;;;;;;24.55;21.90;;;;;;;6.87;100.00;103063.13;5195760;28;20026;-69
2022/04/16 05:14:32;;;;;;;27.73;23.73;;;;;;;6.78;100.00;103056.44;5196609;28;20038;-69
2022/04/16 05:17:04;;;;;;;25.35;22.65;;;;;;;6.76;100.00;103069.53;5196078;28;20022;-69
2022/04/16 05:19:35;;;;;;;25.55;22.13;;;;;;;6.75;100.00;103053.97;5192347;28;20412;-69
2022/04/16 05:22:06;;;;;;;24.60;22.00;;;;;;;6.79;100.00;103066.81;5193568;28;20025;-69
2022/04/16 05:24:37;;;;;;;30.13;23.92;;;;;;;6.80;100.00;103065.06;5195848;28;20061;-69
2022/04/16 05:27:09;;;;;;;26.02;23.27;;;;;;;6.85;100.00;103073.56;5193797;28;20031;-69
2022/04/16 05:30:28;;;;;;;25.75;22.52;;;;;;;6.88;100.00;103072.63;5192526;28;20062;-69
2022/04/16 05:32:37;;;;;;;26.05;23.35;;;;;;;6.94;100.00;103075.88;5192944;28;20342;-69
2022/04/16 05:35:09;;;;;;;26.98;23.40;;;;;;;7.00;100.00;103077.41;5197547;28;20402;-69
2022/04/16 05:37:41;;;;;;;28.13;23.73;;;;;;;7.00;100.00;103078.25;5193802;28;20388;-69
2022/04/16 05:40:13;;;;;;;28.15;24.77;;;;;;;7.01;100.00;103076.53;5193647;28;20112;-69
2022/04/16 05:42:44;;;;;;;28.20;24.85;;;;;;;7.09;100.00;103076.28;5194533;28;20026;-69
2022/04/16 05:45:15;;;;;;;27.83;24.05;;;;;;;7.08;100.00;103078.00;5193927;28;20040;-69
2022/04/16 05:47:47;;;;;;;27.42;24.05;;;;;;;7.10;100.00;103077.97;5196237;28;20018;-69
2022/04/16 05:50:18;;;;;;;27.83;24.80;;;;;;;7.14;100.00;103079.56;5195011;28;20076;-69
2022/04/16 05:52:52;;;;;;;29.33;24.60;;;;;;;7.15;100.00;103078.66;5174601;28;20076;-69
2022/04/16 05:55:23;;;;;;;26.80;23.60;;;;;;;7.17;100.00;103090.75;5191814;28;20044;-69
2022/04/16 05:57:54;;;;;;;27.45;23.52;;;;;;;7.20;100.00;103085.41;5195921;28;20026;-69
2022/04/16 06:00:27;;;;;;;27.80;24.42;;;;;;;7.27;100.00;103091.25;5195780;28;20176;-69
2022/04/16 06:02:58;;;;;;;28.42;25.25;;;;;;;7.29;100.00;103103.34;5182954;28;20029;-68
2022/04/16 06:05:31;;;;;;;28.67;25.60;;;;;;;7.27;100.00;103104.28;5195084;28;20038;-69
2022/04/16 06:08:03;;;;;;;28.63;25.52;;;;;;;7.36;100.00;103105.75;5198864;28;20033;-69
2022/04/16 06:10:36;;;;;;;28.17;24.52;;;;;;;7.41;100.00;103120.31;5196980;28;20024;-69
2022/04/16 06:13:07;;;;;;;;;;;;;;;7.81;100.00;103118.91;5198676;28;20030;-69
2022/04/16 06:15:41;;;;;;;28.73;25.63;;;;;;;7.53;100.00;103112.03;5199715;28;20358;-69
2022/04/16 06:18:12;;;;;;;30.40;26.65;;;;;;;7.62;100.00;103112.66;5190946;28;20292;-69
2022/04/16 06:20:44;;;;;;;32.33;27.70;;;;;;;7.65;100.00;103112.50;5195329;28;20815;-69
2022/04/16 06:23:15;;;;;;;31.20;27.90;;;;;;;7.76;100.00;103120.81;5195652;28;20484;-69
2022/04/16 06:25:47;;;;;;;31.17;26.88;;;;;;;7.80;100.00;103125.00;5188931;28;20161;-69
2022/04/16 06:28:18;;;;;;;30.08;26.83;;;;;;;7.88;100.00;103123.00;5197198;28;20026;-69
2022/04/16 06:30:49;;;;;;;29.88;26.77;;;;;;;7.97;100.00;103121.78;5194260;28;20030;-69
2022/04/16 06:33:20;;;;;;;32.20;27.58;;;;;;;8.03;100.00;103117.19;5196104;28;20060;-69
2022/04/16 06:35:52;;;;;;;33.88;28.33;;;;;;;8.17;100.00;103119.25;5201572;28;20030;-69
2022/04/16 06:38:23;;;;;;;32.55;27.35;;;;;;;8.29;100.00;103115.31;5191231;28;20022;-69
2022/04/16 06:40:54;;;;;;;31.38;27.33;;;;;;;8.45;100.00;103126.94;5196445;28;20132;-69
2022/04/16 06:43:25;;;;;;;30.45;26.90;;;;;;;8.58;100.00;103124.66;5195829;28;20466;-69
2022/04/16 06:45:57;;;;;;;31.45;27.48;;;;;;;8.71;100.00;103125.00;5198917;28;20765;-69
2022/04/16 06:48:28;;;;;;;32.70;28.17;;;;;;;8.86;100.00;103127.00;5198621;28;20022;-69
2022/04/16 06:50:59;;;;;;;32.65;28.70;;;;;;;9.02;100.00;103125.47;5191448;28;20144;-69
2022/04/16 06:53:31;;;;;;;31.13;27.73;;;;;;;9.22;100.00;103131.63;5194820;28;20100;-69
2022/04/16 06:56:02;;;;;;;31.63;27.42;;;;;;;9.27;100.00;103129.66;5196092;28;20029;-71
2022/04/16 06:58:33;;;;;;;30.40;26.75;;;;;;;9.35;100.00;103124.09;5198174;28;20783;-70
2022/04/16 07:01:04;;;;;;;29.40;26.23;;;;;;;9.56;100.00;103117.09;5195043;28;20042;-71
2022/04/16 07:03:36;;;;;;;32.78;27.08;;;;;;;9.70;100.00;103125.19;5187296;28;20088;-69
2022/04/16 07:06:07;;;;;;;30.92;25.67;;;;;;;9.86;100.00;103128.81;5196949;28;20040;-69
2022/04/16 07:08:38;;;;;;;31.13;26.92;;;;;;;9.96;100.00;103123.97;5192876;28;20042;-69
2022/04/16 07:11:10;;;;;;;30.35;25.45;;;;;;;9.96;100.00;103123.97;5197412;28;20396;-69
2022/04/16 07:13:41;;;;;;;28.75;25.65;;;;;;;10.13;100.00;103123.22;5192577;28;20410;-69
2022/04/16 07:16:12;;;;;;;29.10;24.83;;;;;;;10.27;100.00;103120.00;5193731;28;20179;-69
2022/04/16 07:18:44;;;;;;;29.02;24.88;;;;;;;10.42;100.00;103120.13;5193653;28;20022;-69
2022/04/16 07:21:15;;;;;;;29.30;25.58;;;;;;;10.52;100.00;103120.50;5195220;28;20110;-69
2022/04/16 07:23:46;;;;;;;28.17;23.58;;;;;;;10.58;100.00;103125.47;5195739;28;20039;-69
2022/04/16 07:26:17;;;;;;;25.95;23.15;;;;;;;10.76;100.00;103130.72;5191533;28;20024;-70
2022/04/16 07:28:49;;;;;;;26.63;23.73;;;;;;;11.00;100.00;103118.19;5194992;28;20029;-69
2022/04/16 07:31:20;;;;;;;27.65;22.83;;;;;;;10.92;100.00;103129.91;5194864;28;20542;-69
2022/04/16 07:33:51;;;;;;;26.70;22.80;;;;;;;10.99;100.00;103124.38;5195355;28;20443;-69
2022/04/16 07:36:23;;;;;;;27.00;23.00;;;;;;;11.10;100.00;103129.88;5191600;28;20081;-70
2022/04/16 07:38:54;;;;;;;26.45;23.52;;;;;;;11.19;100.00;103140.78;5189269;28;20914;-69
2022/04/16 07:41:25;;;;;;;27.60;23.20;;;;;;;11.30;100.00;103136.78;5189315;28;20022;-70
2022/04/16 07:44:02;;;;;;;25.00;21.30;;;;;;;11.40;100.00;103130.97;5193468;28;20117;-70
2022/04/16 07:46:34;;;;;;;24.42;21.65;;;;;;;11.57;100.00;103140.59;5196643;28;20080;-69
2022/04/16 07:49:06;;;;;;;24.25;21.67;;;;;;;11.71;100.00;103132.00;5192464;28;20557;-70
2022/04/16 07:51:37;;;;;;;25.98;21.15;;;;;;;11.86;100.00;103132.97;5199081;28;20029;-69
2022/04/16 07:54:08;;;;;;;23.20;20.70;;;;;;;12.03;100.00;103139.94;5193837;28;20026;-70
2022/04/16 07:56:39;;;;;;;23.20;20.25;;;;;;;12.08;100.00;103130.03;5195405;28;20065;-70
2022/04/16 07:59:12;;;;;;;24.63;20.45;;;;;;;12.09;100.00;103134.38;5191413;28;20092;-70
2022/04/16 08:01:43;;;;;;;23.17;20.80;;;;;;;12.14;100.00;103132.31;5190886;28;20034;-70
2022/04/16 08:04:14;;;;;;;25.02;21.42;;;;;;;12.16;100.00;103130.47;5195825;28;20522;-70
2022/04/16 08:06:45;;;;;;;23.95;21.02;;;;;;;12.32;100.00;103133.94;5190684;28;20030;-70
2022/04/16 08:09:17;;;;;;;23.02;20.23;;;;;;;12.46;100.00;103140.19;5192445;28;20026;-70
2022/04/16 08:11:49;;;;;;;22.10;19.70;;;;;;;12.59;100.00;103149.09;5174567;28;20021;-70
2022/04/16 08:14:20;;;;;;;20.40;18.30;;;;;;;12.64;100.00;103133.88;5187926;28;20022;-70
2022/04/16 08:16:52;;;;;;;20.05;17.48;;;;;;;12.70;100.00;103137.97;5196331;28;20120;-70
2022/04/16 08:19:23;;;;;;;20.17;18.00;;;;;;;13.01;100.00;103139.66;5193395;28;20041;-71
2022/04/16 08:21:55;;;;;;;22.90;19.38;;;;;;;12.94;100.00;103135.69;5191499;28;20030;-70
2022/04/16 08:26:58;;;;;;;20.80;18.55;;;;;;;13.20;100.00;103139.44;5197308;28;20030;-70
2022/04/16 08:29:29;;;;;;;20.25;17.92;;;;;;;13.37;100.00;103145.44;5197793;28;20048;-70
2022/04/16 08:32:01;;;;;;;20.55;18.10;;;;;;;13.49;100.00;103143.84;5197822;28;20556;-70
2022/04/16 08:34:35;;;;;;;17.83;16.02;;;;;;;13.65;100.00;103137.63;5192142;28;20491;-69
2022/04/16 08:37:06;;;;;;;20.13;17.98;;;;;;;13.80;100.00;103140.16;5193032;28;20689;-72
2022/04/16 08:39:38;;;;;;;18.45;16.55;;;;;;;13.61;100.00;103139.59;5196138;28;20424;-70
2022/04/16 08:42:09;;;;;;;17.58;15.65;;;;;;;13.78;100.00;103144.66;5194717;28;20589;-70
2022/04/16 08:44:40;;;;;;;16.85;15.15;;;;;;;13.88;100.00;103150.22;5196918;28;20081;-69
2022/04/16 08:47:13;;;;;;;17.35;15.55;;;;;;;14.00;100.00;103149.47;5189320;28;20030;-70
2022/04/16 08:49:44;;;;;;;19.05;16.40;;;;;;;14.12;100.00;103147.84;5194013;28;20528;-70
2022/04/16 08:52:17;;;;;;;16.58;14.85;;;;;;;14.17;100.00;103155.44;5193851;28;20072;-70
2022/04/16 08:54:48;;;;;;;15.80;14.20;;;;;;;14.35;100.00;103149.84;5193036;28;20029;-70
2022/04/16 08:57:20;;;;;;;16.10;14.43;;;;;;;14.35;100.00;103143.72;5190950;28;20080;-69
2022/04/16 08:59:52;;;;;;;16.08;14.15;;;;;;;14.55;100.00;103143.34;5194067;28;20058;-68
2022/04/16 09:02:26;;;;;;;14.93;13.43;;;;;;;14.62;100.00;103143.75;5195829;28;20034;-69
2022/04/16 09:05:17;;;;;;;;;;;;;;;15.23;100.00;103144.97;5195397;28;20033;-71
2022/04/16 09:07:51;;;;;;;15.20;12.82;;;;;;;14.73;97.45;103133.34;5189420;28;20426;-71
2022/04/16 09:10:27;;;;;;;15.65;13.00;;;;;;;14.88;98.42;103141.22;5191682;28;20062;-69
2022/04/16 09:13:01;;;;;;;14.52;12.73;;;;;;;15.01;97.23;103134.19;5195208;28;20022;-68
2022/04/16 09:15:34;;;;;;;15.80;13.32;;;;;;;14.93;97.11;103133.84;5193371;28;20479;-69
2022/04/16 09:18:07;;;;;;;14.48;12.85;;;;;;;15.19;95.72;103142.63;5186680;28;20085;-70
2022/04/16 09:20:39;;;;;;;14.10;12.63;;;;;;;15.19;94.35;103142.63;5187092;28;20500;-69
2022/04/16 09:23:22;;;;;;;16.70;12.38;;;;;;;15.45;95.02;103135.56;5187487;28;20030;-69
2022/04/16 09:25:55;;;;;;;12.95;11.25;;;;;;;15.24;94.23;103133.47;5189179;28;20025;-69
2022/04/16 09:28:26;;;;;;;13.48;12.07;;;;;;;14.93;93.04;103126.78;5192566;28;20026;-69
2022/04/16 09:30:59;;;;;;;15.57;12.38;;;;;;;14.73;95.41;103129.88;5194137;28;20030;-69
2022/04/16 09:33:37;;;;;;;12.80;11.45;;;;;;;14.75;94.37;103128.84;5182050;28;20031;-69
2022/04/16 09:36:08;;;;;;;12.30;11.00;;;;;;;14.79;94.16;103132.97;5183871;28;20036;-70
2022/04/16 09:38:42;;;;;;;12.02;10.73;;;;;;;14.76;92.49;103133.16;5191302;28;20035;-69
2022/04/16 09:41:14;;;;;;;12.38;10.80;;;;;;;14.72;92.67;103138.75;5186669;28;20563;-70
2022/04/16 09:43:46;;;;;;;11.00;9.73;;;;;;;14.79;92.34;103130.31;5197024;28;20045;-69
2022/04/16 09:46:17;;;;;;;13.05;10.18;;;;;;;14.82;92.98;103122.22;5198054;28;20041;-69
2022/04/16 09:48:51;;;;;;;10.32;8.90;;;;;;;14.81;88.38;103131.09;5197233;28;20092;-70
2022/04/16 09:51:24;;;;;;;11.18;9.95;;;;;;;14.91;91.69;103115.47;5198110;28;20036;-70
2022/04/16 09:53:56;;;;;;;12.35;9.10;;;;;;;15.42;90.30;103122.56;5195383;28;20340;-68
2022/04/16 09:56:30;;;;;;;8.13;6.80;;;;;;;15.70;80.90;103121.53;5196605;28;20029;-69
2022/04/16 09:59:04;;;;;;;6.43;5.70;;;;;;;15.99;80.35;103119.47;5197709;28;20026;-70
2022/04/16 10:01:41;;;;;;;8.98;7.63;;;;;;;16.20;82.97;103123.19;5196843;28;20510;-68
2022/04/16 10:04:17;;;;;;;7.82;6.68;;;;;;;16.23;80.94;103112.41;5196621;28;20845;-68
2022/04/16 10:06:51;;;;;;;8.43;6.00;;;;;;;15.91;77.37;103121.78;5197064;28;20034;-69
2022/04/16 10:09:24;;;;;;;6.13;5.47;;;;;;;15.89;78.80;103118.44;5197622;28;20038;-70
2022/04/16 10:15:01;;;;;;;6.88;6.00;;;;;;;16.33;78.30;103106.44;5192487;28;19925;-69
2022/04/16 10:17:39;;;;;;;7.00;6.22;;;;;;;16.35;76.71;103107.16;5194714;28;20053;-69
2022/04/16 10:20:15;;;;;;;7.30;6.00;;;;;;;16.26;75.30;103106.06;5192454;28;20113;-69
2022/04/16 10:22:58;;;;;;;6.85;5.85;;;;;;;16.16;71.56;103105.03;5190897;28;20086;-70
2022/04/16 10:25:41;;;;;;;8.20;5.63;;;;;;;16.43;74.46;103110.94;5197306;28;20135;-69
2022/04/16 10:28:20;;;;;;;8.60;6.03;;;;;;;16.32;71.23;103113.53;5195788;28;20858;-69
2022/04/16 10:30:53;;;;;;;8.13;6.95;;;;;;;16.12;73.16;103111.50;5195839;28;20267;-70
2022/04/16 10:33:27;;;;;;;9.32;6.47;;;;;;;16.03;72.11;103115.66;5194617;28;20473;-69
2022/04/16 10:36:05;;;;;;;4.10;3.35;;;;;;;15.96;67.90;103111.75;5194930;28;20026;-69
2022/04/16 10:38:40;;;;;;;6.22;4.22;;;;;;;16.11;67.70;103108.00;5196392;28;20084;-70
2022/04/16 10:41:18;;;;;;;7.35;4.82;;;;;;;16.29;68.33;103116.41;5194523;28;20088;-69
2022/04/16 10:43:59;;;;;;;5.28;4.57;;;;;;;16.45;68.47;103110.84;5194471;28;20038;-70
2022/04/16 10:46:47;;;;;;;5.00;4.38;;;;;;;16.61;68.96;103111.38;5191105;28;20261;-69
2022/04/16 10:49:20;;;;;;;7.70;4.68;;;;;;;16.36;66.89;103116.78;5196231;28;20369;-69
2022/04/16 10:51:58;;;;;;;4.70;4.20;;;;;;;16.13;67.37;103116.66;5194191;28;20057;-69
2022/04/16 10:54:34;;;;;;;3.90;3.50;;;;;;;16.01;66.82;103115.75;5198495;28;20129;-69
2022/04/16 10:57:08;;;;;;;3.83;3.33;;;;;;;16.24;65.41;103110.59;5191175;28;20036;-69
2022/04/16 10:59:44;;;;;;;4.70;3.63;;;;;;;16.37;62.56;103108.75;5191960;28;20053;-69
2022/04/16 11:02:22;;;;;;;5.50;3.58;;;;;;;16.42;63.27;103113.69;5197342;28;20038;-69
2022/04/16 11:05:00;;;;;;;4.88;3.92;;;;;;;16.49;64.37;103107.00;5198722;28;20479;-69
2022/04/16 11:07:35;;;;;;;4.85;3.88;;;;;;;16.63;60.72;103105.97;5197018;28;20038;-69
2022/04/16 11:10:11;;;;;;;4.88;4.10;;;;;;;16.70;60.08;103105.38;5196305;28;20457;-69
2022/04/16 11:12:44;;;;;;;6.55;4.50;;;;;;;16.78;60.87;103112.78;5195870;28;20069;-70
2022/04/16 11:15:23;;;;;;;5.68;4.05;;;;;;;16.77;59.62;103111.94;5198349;28;20056;-70
2022/04/16 11:18:00;;;;;;;4.85;4.07;;;;;;;17.07;59.53;103107.94;5196191;28;20060;-70
2022/04/16 11:20:31;;;;;;;4.38;3.90;;;;;;;17.19;58.15;103106.97;5193219;28;20030;-69
2022/04/16 11:23:10;;;;;;;4.82;4.07;;;;;;;17.22;57.07;103104.09;5196440;28;20033;-69
2022/04/16 11:34:17;;;;;;;5.13;4.07;;;;;;;17.00;50.74;103109.34;5196079;28;20492;-69
2022/04/16 11:36:51;;;;;;;5.70;4.30;;;;;;;17.10;51.37;103094.47;5195651;28;20508;-69
2022/04/16 11:39:30;;;;;;;5.05;4.10;;;;;;;16.99;50.69;103094.44;5198547;28;20038;-69
2022/04/16 11:42:10;;;;;;;5.82;4.35;;;;;;;17.10;50.88;103080.38;5197460;28;20026;-69
2022/04/16 11:44:45;;;;;;;7.65;5.00;;;;;;;17.17;51.32;103093.03;5195404;28;20038;-70
2022/04/16 11:47:24;;;;;;;4.93;4.43;;;;;;;17.16;49.43;103085.19;5194741;28;20373;-69
2022/04/16 11:50:05;;;;;;;6.00;4.22;;;;;;;17.34;48.70;103078.47;5197418;28;20338;-69
2022/04/16 11:52:37;;;;;;;5.75;4.70;;;;;;;17.42;48.80;103080.50;5196767;28;20528;-69
2022/04/16 11:55:22;;;;;;;5.30;4.50;;;;;;;17.56;48.78;103068.84;5194399;28;20033;-69
2022/04/16 11:57:53;;;;;;;6.40;4.75;;;;;;;17.66;49.57;103072.44;5193498;28;20036;-69
2022/04/16 12:00:24;;;;;;;7.20;5.20;;;;;;;17.54;47.25;103068.97;5195658;28;20054;-69